Time;durP1;ratioP1;P1;durP2;ratioP2;P2;SDS_P1;SDS_P2;PMS_P1;PMS_P2;Temp;Humidity;BMP_temperature;BMP_pressure;BME280_temperature;BME280_humidity;BME280_pressure;Samples;Min_cycle;Max_cycle;Signal;HPM_P1;HPM_P2
2022/07/08 00:01:42;;;;;;;3.27;2.10;;;14.30;99.90;;;;;;5034599;28;20409;-72
2022/07/08 00:04:07;;;;;;;2.03;1.53;;;14.30;99.90;;;;;;5034549;28;20191;-70
2022/07/08 00:06:33;;;;;;;7.73;2.20;;;14.20;99.90;;;;;;5034273;28;20187;-70
2022/07/08 00:08:59;;;;;;;6.03;1.77;;;14.20;99.90;;;;;;5034635;28;20167;-70
2022/07/08 00:11:24;;;;;;;5.67;2.30;;;14.10;99.90;;;;;;5034385;28;20168;-70
2022/07/08 00:13:50;;;;;;;5.80;2.73;;;14.10;99.90;;;;;;5034407;28;20195;-70
2022/07/08 00:16:15;;;;;;;5.40;2.23;;;14.10;99.90;;;;;;5034042;28;20200;-70
2022/07/08 00:18:41;;;;;;;3.30;1.70;;;14.10;99.90;;;;;;5034263;28;20505;-70
2022/07/08 00:21:08;;;;;;;2.40;2.13;;;14.10;99.90;;;;;;5034230;28;20163;-70
2022/07/08 00:23:33;;;;;;;4.73;1.97;;;14.10;99.90;;;;;;5033923;28;20399;-70
2022/07/08 00:25:59;;;;;;;3.60;2.03;;;14.10;99.90;;;;;;5033829;28;20413;-70
2022/07/08 00:28:25;;;;;;;12.50;2.30;;;14.00;99.90;;;;;;5034126;28;20226;-70
2022/07/08 00:30:50;;;;;;;5.87;2.07;;;14.00;99.90;;;;;;5033870;28;20170;-70
2022/07/08 00:33:16;;;;;;;3.73;1.70;;;13.90;99.90;;;;;;5033516;28;20172;-71
2022/07/08 00:35:41;;;;;;;7.57;2.13;;;13.90;99.90;;;;;;5033658;28;20605;-71
2022/07/08 00:38:07;;;;;;;5.77;2.30;;;14.00;99.90;;;;;;5033806;28;20555;-71
2022/07/08 00:40:34;;;;;;;3.00;1.77;;;14.00;99.90;;;;;;5033830;28;20164;-70
2022/07/08 00:43:00;;;;;;;4.87;2.10;;;14.00;99.90;;;;;;5033084;28;20263;-70
2022/07/08 00:45:26;;;;;;;4.67;2.03;;;14.00;99.90;;;;;;5033116;28;20486;-70
2022/07/08 00:47:52;;;;;;;4.60;1.83;;;14.00;99.90;;;;;;5033223;28;20245;-70
2022/07/08 00:50:17;;;;;;;3.50;2.10;;;13.90;99.90;;;;;;5033430;28;20233;-72
2022/07/08 00:52:44;;;;;;;3.17;2.00;;;14.00;99.90;;;;;;5033336;28;20418;-70
2022/07/08 00:55:10;;;;;;;2.90;2.30;;;13.90;99.90;;;;;;5033615;28;20171;-71
2022/07/08 00:57:38;;;;;;;3.37;1.70;;;14.00;99.90;;;;;;5033071;28;20462;-71
2022/07/08 01:00:05;;;;;;;4.33;2.07;;;13.90;99.90;;;;;;5033324;28;20543;-71
2022/07/08 01:02:30;;;;;;;10.23;3.00;;;13.90;99.90;;;;;;5032930;28;20484;-70
2022/07/08 01:04:56;;;;;;;7.70;2.37;;;13.90;99.90;;;;;;5032915;28;20486;-70
2022/07/08 01:07:22;;;;;;;4.70;2.00;;;13.90;99.90;;;;;;5033051;28;20673;-70
2022/07/08 01:09:52;;;;;;;2.90;1.70;;;13.90;99.90;;;;;;5032998;28;20176;-70
2022/07/08 01:12:17;;;;;;;3.00;2.03;;;13.90;99.90;;;;;;5030763;28;20395;-70
2022/07/08 01:14:43;;;;;;;5.17;2.50;;;13.90;99.90;;;;;;5033158;28;20395;-70
2022/07/08 01:17:09;;;;;;;5.97;2.47;;;13.90;99.90;;;;;;5033065;28;20590;-70
2022/07/08 01:19:35;;;;;;;8.43;2.13;;;13.90;99.90;;;;;;5048451;28;20410;-70
2022/07/08 01:22:01;;;;;;;8.40;2.20;;;13.90;99.90;;;;;;5033298;28;20654;-70
2022/07/08 01:24:26;;;;;;;6.13;2.53;;;13.90;99.90;;;;;;5032941;28;20164;-71
2022/07/08 01:26:52;;;;;;;3.30;2.80;;;13.90;99.90;;;;;;5032191;28;20481;-71
2022/07/08 01:29:17;;;;;;;7.37;2.90;;;13.90;99.90;;;;;;5032755;28;20203;-70
2022/07/08 01:31:43;;;;;;;15.23;2.70;;;13.90;99.90;;;;;;5032397;28;20175;-70
2022/07/08 01:34:09;;;;;;;10.33;3.20;;;13.90;99.90;;;;;;5032789;28;20210;-70
2022/07/08 01:36:34;;;;;;;8.40;2.70;;;13.90;99.90;;;;;;5032255;28;20203;-70
2022/07/08 01:39:00;;;;;;;3.63;2.13;;;13.90;99.90;;;;;;5032633;28;20160;-71
2022/07/08 01:41:25;;;;;;;5.77;2.30;;;13.90;99.90;;;;;;5032286;28;20221;-70
2022/07/08 01:43:51;;;;;;;3.73;2.10;;;14.00;99.90;;;;;;5032343;28;20555;-71
2022/07/08 01:46:17;;;;;;;5.63;2.37;;;14.00;99.90;;;;;;5032262;28;20167;-72
2022/07/08 01:48:43;;;;;;;9.60;2.83;;;14.10;99.90;;;;;;5032595;28;20255;-70
2022/07/08 01:51:08;;;;;;;6.27;1.93;;;14.10;99.90;;;;;;5032610;28;20290;-70
2022/07/08 01:53:34;;;;;;;7.17;2.23;;;14.10;99.90;;;;;;5031402;28;20437;-70
2022/07/08 01:56:00;;;;;;;8.37;2.80;;;14.10;99.90;;;;;;5031865;28;20164;-70
2022/07/08 01:58:25;;;;;;;4.33;2.17;;;14.10;99.90;;;;;;5032498;28;20190;-70
2022/07/08 02:00:51;;;;;;;4.77;2.53;;;14.20;99.90;;;;;;5032129;28;20225;-71
2022/07/08 02:03:17;;;;;;;7.20;2.47;;;14.20;99.90;;;;;;5032909;28;20167;-71
2022/07/08 02:05:42;;;;;;;13.03;2.37;;;14.10;99.90;;;;;;5032137;28;20885;-70
2022/07/08 02:08:08;;;;;;;8.77;2.83;;;14.20;99.90;;;;;;5032207;28;20615;-70
2022/07/08 02:13:18;;;;;;;9.70;2.83;;;14.20;99.90;;;;;;5032167;28;20182;-70
2022/07/08 02:15:44;;;;;;;3.90;1.97;;;14.30;99.90;;;;;;5031722;28;20885;-70
2022/07/08 02:18:11;;;;;;;10.40;2.93;;;14.30;99.90;;;;;;5032031;28;20492;-70
2022/07/08 02:20:36;;;;;;;4.97;2.37;;;14.30;99.90;;;;;;5032266;28;20468;-71
2022/07/08 02:23:02;;;;;;;6.00;2.97;;;14.30;99.90;;;;;;5031942;28;20414;-70
2022/07/08 02:25:27;;;;;;;3.13;2.40;;;14.30;99.90;;;;;;5031796;28;20167;-71
2022/07/08 02:27:53;;;;;;;11.10;3.00;;;14.20;99.90;;;;;;5031983;28;20210;-71
2022/07/08 02:30:18;;;;;;;8.10;2.67;;;14.20;99.90;;;;;;5031773;28;20226;-71
2022/07/08 02:32:44;;;;;;;10.60;5.23;;;14.20;99.90;;;;;;5031751;28;20194;-71
2022/07/08 02:35:09;;;;;;;8.13;2.23;;;14.10;99.90;;;;;;5031673;28;20174;-71
2022/07/08 02:37:35;;;;;;;3.73;2.20;;;14.20;99.90;;;;;;5031429;28;20203;-71
2022/07/08 02:40:01;;;;;;;5.33;2.37;;;14.20;99.90;;;;;;5030540;28;20171;-71
2022/07/08 02:42:26;;;;;;;4.83;2.80;;;14.20;99.90;;;;;;5031837;28;20638;-71
2022/07/08 02:44:52;;;;;;;7.40;3.20;;;14.30;99.90;;;;;;5031544;28;20525;-71
2022/07/08 02:47:17;;;;;;;4.80;2.57;;;14.30;99.90;;;;;;5031735;28;20273;-71
2022/07/08 02:49:43;;;;;;;9.30;2.70;;;14.30;99.90;;;;;;5030672;28;20181;-70
2022/07/08 02:52:08;;;;;;;9.77;2.30;;;14.40;99.90;;;;;;5031798;28;20190;-71
2022/07/08 02:54:34;;;;;;;9.33;2.47;;;14.40;99.90;;;;;;5031744;28;20590;-71
2022/07/08 02:56:59;;;;;;;5.67;1.97;;;14.40;99.90;;;;;;5031735;28;20686;-71
2022/07/08 02:59:25;;;;;;;2.73;2.23;;;14.40;99.90;;;;;;5031727;28;20175;-71
2022/07/08 03:01:51;;;;;;;8.50;3.30;;;14.40;99.90;;;;;;5031391;28;20174;-71
2022/07/08 03:04:16;;;;;;;6.10;2.50;;;14.50;99.90;;;;;;5031727;28;20168;-71
2022/07/08 03:06:42;;;;;;;4.17;2.67;;;14.50;99.90;;;;;;5035062;28;20266;-70
2022/07/08 03:09:07;;;;;;;7.27;3.00;;;14.50;99.90;;;;;;5035975;28;20203;-71
2022/07/08 03:11:33;;;;;;;7.97;2.83;;;14.50;99.90;;;;;;5035790;28;20175;-71
2022/07/08 03:13:58;;;;;;;5.30;2.80;;;14.50;99.90;;;;;;5035526;28;20199;-71
2022/07/08 03:16:24;;;;;;;5.20;2.30;;;14.50;99.90;;;;;;5035018;28;20187;-71
2022/07/08 03:18:49;;;;;;;9.17;3.20;;;14.50;99.90;;;;;;5035288;28;20237;-71
2022/07/08 03:21:15;;;;;;;12.50;2.53;;;14.50;99.90;;;;;;5035229;28;20598;-71
2022/07/08 03:23:41;;;;;;;2.00;1.80;;;14.60;99.90;;;;;;5035102;28;20653;-71
2022/07/08 03:26:06;;;;;;;9.73;2.80;;;14.60;99.90;;;;;;5035258;28;20176;-71
2022/07/08 03:28:32;;;;;;;7.53;2.80;;;14.60;99.90;;;;;;5034851;28;20226;-71
2022/07/08 03:30:58;;;;;;;5.60;2.20;;;14.70;99.90;;;;;;5035301;28;20176;-71
2022/07/08 03:33:23;;;;;;;4.90;2.33;;;14.70;99.90;;;;;;5035066;28;20168;-71
2022/07/08 03:35:49;;;;;;;8.07;3.50;;;14.70;99.90;;;;;;5034840;28;20180;-71
2022/07/08 03:38:15;;;;;;;5.37;3.10;;;14.70;99.90;;;;;;5035139;28;20184;-71
2022/07/08 03:43:25;;;;;;;6.87;2.40;;;14.80;99.90;;;;;;5035392;28;20472;-71
2022/07/08 03:45:50;;;;;;;2.73;2.47;;;14.80;99.90;;;;;;5034795;28;20872;-71
2022/07/08 03:48:16;;;;;;;7.23;2.00;;;14.80;99.90;;;;;;5034636;28;20731;-72
2022/07/08 03:50:41;;;;;;;5.20;2.03;;;14.80;99.90;;;;;;5035091;28;20164;-70
2022/07/08 03:53:07;;;;;;;5.70;3.20;;;14.90;99.90;;;;;;5034817;28;20199;-70
2022/07/08 03:55:33;;;;;;;3.47;3.17;;;14.90;99.90;;;;;;5034604;28;20160;-70
2022/07/08 03:57:58;;;;;;;5.80;2.40;;;14.90;99.90;;;;;;5034703;28;20547;-70
2022/07/08 04:00:25;;;;;;;4.93;2.37;;;15.00;99.90;;;;;;5034702;28;20255;-70
2022/07/08 04:02:50;;;;;;;5.23;1.77;;;15.00;99.90;;;;;;5034388;28;20684;-70
2022/07/08 04:05:16;;;;;;;3.80;2.00;;;15.00;99.90;;;;;;5034078;28;20407;-70
2022/07/08 04:07:41;;;;;;;5.93;2.40;;;15.10;99.90;;;;;;5034264;28;20187;-70
2022/07/08 04:10:08;;;;;;;5.13;1.97;;;15.20;99.90;;;;;;5034115;28;20168;-70
2022/07/08 04:12:33;;;;;;;4.30;1.97;;;15.10;99.90;;;;;;5034087;28;20255;-71
2022/07/08 04:14:59;;;;;;;6.10;2.70;;;15.10;99.90;;;;;;5033864;28;20444;-71
2022/07/08 04:17:25;;;;;;;6.10;2.60;;;15.10;99.90;;;;;;5033366;28;20277;-70
2022/07/08 04:19:50;;;;;;;5.93;2.07;;;15.20;99.90;;;;;;5034091;28;20179;-70
2022/07/08 04:22:16;;;;;;;1.70;1.60;;;15.10;99.90;;;;;;5034355;28;20257;-71
2022/07/08 04:24:41;;;;;;;11.60;2.77;;;15.20;99.90;;;;;;5033375;28;20567;-70
2022/07/08 04:27:07;;;;;;;4.30;2.07;;;15.20;99.90;;;;;;5034008;28;20558;-70
2022/07/08 04:29:33;;;;;;;5.13;2.07;;;15.10;99.90;;;;;;5034680;28;20168;-71
2022/07/08 04:31:59;;;;;;;9.40;1.90;;;15.20;99.90;;;;;;5033795;28;20173;-70
2022/07/08 04:34:25;;;;;;;6.07;2.00;;;15.40;99.90;;;;;;5033615;28;20176;-71
2022/07/08 04:36:50;;;;;;;17.73;2.67;;;15.40;99.90;;;;;;5033129;28;20462;-71
2022/07/08 04:39:16;;;;;;;6.23;2.30;;;15.50;99.90;;;;;;5032004;28;20187;-71
2022/07/08 04:41:41;;;;;;;4.70;2.17;;;15.50;99.90;;;;;;5033171;28;20166;-70
2022/07/08 04:44:07;;;;;;;5.13;2.10;;;15.50;99.90;;;;;;5033194;28;20170;-70
2022/07/08 04:46:32;;;;;;;2.83;2.00;;;15.50;99.90;;;;;;5032902;28;20246;-70
2022/07/08 04:48:58;;;;;;;6.60;2.20;;;15.50;99.90;;;;;;5033064;28;20270;-70
2022/07/08 04:51:23;;;;;;;5.30;2.50;;;15.50;99.90;;;;;;5033093;28;20182;-70
2022/07/08 04:53:49;;;;;;;4.73;2.70;;;15.50;99.90;;;;;;5032807;28;20218;-70
2022/07/08 04:56:15;;;;;;;6.97;1.90;;;15.50;99.90;;;;;;5032585;28;20192;-71
2022/07/08 04:58:40;;;;;;;4.07;2.00;;;15.60;99.90;;;;;;5032876;28;20257;-70
2022/07/08 05:01:06;;;;;;;11.87;1.77;;;15.60;99.90;;;;;;5032720;28;20660;-70
2022/07/08 05:03:31;;;;;;;8.23;2.33;;;15.70;99.90;;;;;;5032660;28;20258;-70
2022/07/08 05:05:57;;;;;;;4.50;1.93;;;15.90;99.90;;;;;;5032519;28;20170;-71
2022/07/08 05:08:22;;;;;;;5.70;2.07;;;15.90;99.90;;;;;;5032542;28;20185;-71
2022/07/08 05:10:48;;;;;;;4.23;2.30;;;15.70;99.90;;;;;;5032936;28;20164;-70
2022/07/08 05:13:14;;;;;;;3.00;1.80;;;15.80;99.90;;;;;;5032716;28;20176;-71
2022/07/08 05:15:40;;;;;;;8.53;2.30;;;16.00;99.90;;;;;;5032361;28;20450;-70
2022/07/08 05:18:05;;;;;;;3.63;2.00;;;15.90;99.90;;;;;;5032210;28;20284;-71
2022/07/08 05:20:31;;;;;;;11.33;2.57;;;16.00;99.90;;;;;;5032753;28;20805;-71
2022/07/08 05:22:57;;;;;;;3.17;1.63;;;15.90;99.90;;;;;;5032446;28;20168;-71
2022/07/08 05:25:22;;;;;;;4.97;1.60;;;15.60;99.90;;;;;;5032228;28;20406;-71
2022/07/08 05:27:48;;;;;;;6.57;3.00;;;15.70;99.90;;;;;;5032001;28;20224;-71
2022/07/08 05:30:14;;;;;;;7.77;3.40;;;15.60;99.90;;;;;;5032274;28;20171;-71
2022/07/08 05:32:40;;;;;;;4.63;2.20;;;15.60;99.90;;;;;;5031995;28;20654;-70
2022/07/08 05:35:06;;;;;;;4.53;1.73;;;15.60;99.90;;;;;;5032297;28;20403;-70
2022/07/08 05:37:34;;;;;;;5.17;2.20;;;15.50;99.90;;;;;;5031713;28;20538;-71
2022/07/08 05:39:59;;;;;;;8.87;1.90;;;15.80;99.90;;;;;;5032392;28;20497;-71
2022/07/08 05:42:25;;;;;;;2.37;2.13;;;15.50;99.90;;;;;;5032732;28;20495;-73
2022/07/08 05:44:51;;;;;;;12.77;5.80;;;15.30;99.90;;;;;;5032318;28;20640;-73
2022/07/08 05:47:16;;;;;;;4.23;1.93;;;15.80;99.90;;;;;;5032028;28;20196;-71
2022/07/08 05:49:43;;;;;;;3.87;3.10;;;15.20;99.90;;;;;;5032156;28;20238;-70
2022/07/08 05:52:09;;;;;;;5.43;2.27;;;15.30;99.90;;;;;;5031796;28;20680;-69
2022/07/08 05:54:35;;;;;;;4.57;2.10;;;15.40;99.90;;;;;;5032278;28;20410;-69
2022/07/08 05:57:01;;;;;;;5.30;2.53;;;15.90;99.90;;;;;;5031818;28;20822;-69
2022/07/08 05:59:27;;;;;;;4.07;2.03;;;15.30;99.90;;;;;;5031899;28;20177;-69
2022/07/08 06:01:53;;;;;;;2.67;2.03;;;15.40;99.90;;;;;;5031652;28;20169;-70
2022/07/08 06:04:18;;;;;;;3.17;1.80;;;15.80;99.90;;;;;;5031783;28;20411;-69
2022/07/08 06:06:44;;;;;;;3.53;2.43;;;15.60;99.90;;;;;;5031736;28;20272;-69
2022/07/08 06:09:11;;;;;;;5.00;2.03;;;15.90;99.90;;;;;;5031732;28;20185;-69
2022/07/08 06:11:37;;;;;;;3.97;1.77;;;16.00;99.90;;;;;;5031540;28;20541;-68
2022/07/08 06:14:02;;;;;;;5.17;2.20;;;15.80;99.90;;;;;;5031527;28;20414;-69
2022/07/08 06:16:28;;;;;;;7.13;2.00;;;15.50;99.90;;;;;;5031014;28;20188;-69
2022/07/08 06:18:53;;;;;;;4.57;3.17;;;15.70;99.90;;;;;;5031766;28;20171;-69
2022/07/08 06:21:19;;;;;;;4.47;2.10;;;15.70;99.90;;;;;;5031330;28;20168;-69
2022/07/08 06:23:44;;;;;;;3.63;1.97;;;15.70;99.90;;;;;;5031405;28;20172;-69
2022/07/08 06:26:11;;;;;;;7.73;2.17;;;15.60;99.90;;;;;;5031152;28;20223;-69
2022/07/08 06:28:36;;;;;;;2.03;1.90;;;15.60;99.90;;;;;;5052591;23;20215;-66
2022/07/08 06:31:02;;;;;;;2.93;2.73;;;15.90;99.90;;;;;;5031525;28;20419;-65
2022/07/08 06:33:27;;;;;;;5.30;2.50;;;15.80;99.90;;;;;;5031701;28;20165;-66
2022/07/08 06:35:53;;;;;;;4.27;1.80;;;15.70;99.90;;;;;;5031165;28;20162;-68
2022/07/08 06:38:19;;;;;;;3.90;1.87;;;16.00;99.90;;;;;;5031412;28;20184;-68
2022/07/08 06:40:44;;;;;;;2.40;1.37;;;15.90;99.90;;;;;;5029254;28;20165;-65
2022/07/08 06:43:10;;;;;;;2.70;1.87;;;15.90;99.90;;;;;;5031221;28;20259;-64
2022/07/08 06:45:35;;;;;;;2.17;1.67;;;15.90;99.90;;;;;;5030921;28;20244;-64
2022/07/08 06:48:02;;;;;;;11.93;2.80;;;15.80;99.90;;;;;;5031361;28;20198;-64
2022/07/08 06:50:29;;;;;;;6.67;2.17;;;15.80;99.90;;;;;;5031402;28;20206;-64
2022/07/08 06:52:56;;;;;;;2.50;1.20;;;15.90;99.90;;;;;;5031326;28;20842;-64
2022/07/08 06:55:22;;;;;;;4.97;1.73;;;15.50;99.90;;;;;;5030927;28;20406;-67
2022/07/08 06:57:48;;;;;;;4.80;1.83;;;15.40;99.90;;;;;;5031039;28;20482;-64
2022/07/08 07:00:14;;;;;;;4.50;2.00;;;15.50;99.90;;;;;;5030857;28;20926;-64
2022/07/08 07:02:39;;;;;;;4.17;2.00;;;15.80;99.90;;;;;;5031185;28;20164;-64
2022/07/08 07:05:06;;;;;;;7.13;2.47;;;15.60;99.90;;;;;;5030827;28;20909;-65
2022/07/08 07:07:32;;;;;;;4.03;2.00;;;15.80;99.90;;;;;;5031048;28;20247;-64
2022/07/08 07:09:58;;;;;;;7.20;1.90;;;15.50;99.90;;;;;;5030025;28;20442;-65
2022/07/08 07:12:24;;;;;;;4.87;2.10;;;15.50;99.90;;;;;;5031202;28;20604;-65
2022/07/08 07:14:50;;;;;;;5.60;2.07;;;15.30;99.90;;;;;;5030818;28;20308;-65
2022/07/08 07:17:21;;;;;;;6.83;1.30;;;15.40;99.90;;;;;;5028184;28;20459;-65
2022/07/08 07:19:48;;;;;;;3.07;2.40;;;15.50;99.90;;;;;;5030224;28;20771;-64
2022/07/08 07:22:15;;;;;;;5.40;2.30;;;15.70;99.90;;;;;;5031171;28;20882;-64
2022/07/08 07:24:41;;;;;;;4.23;2.03;;;15.50;99.90;;;;;;5029470;28;20435;-65
2022/07/08 07:27:07;;;;;;;4.60;2.33;;;15.60;99.90;;;;;;5030802;28;20419;-67
2022/07/08 07:29:33;;;;;;;12.70;2.17;;;15.60;99.90;;;;;;5030572;28;20447;-66
2022/07/08 07:31:59;;;;;;;2.83;2.50;;;15.50;99.90;;;;;;5030090;28;20564;-63
2022/07/08 07:34:24;;;;;;;4.70;2.00;;;15.50;99.90;;;;;;5031307;28;20421;-63
2022/07/08 07:36:50;;;;;;;3.80;2.10;;;15.90;99.90;;;;;;5029640;28;20750;-66
2022/07/08 07:39:15;;;;;;;4.93;1.70;;;16.00;99.90;;;;;;5031262;28;20188;-66
2022/07/08 07:41:41;;;;;;;3.70;1.30;;;15.70;99.90;;;;;;5031251;28;20172;-66
2022/07/08 07:44:07;;;;;;;9.07;3.03;;;16.00;99.90;;;;;;5031217;28;20169;-66
2022/07/08 07:46:33;;;;;;;4.60;2.63;;;16.60;99.90;;;;;;5030786;28;20597;-65
2022/07/08 07:48:58;;;;;;;2.63;1.57;;;16.90;99.90;;;;;;5029659;28;20600;-65
2022/07/08 07:51:24;;;;;;;7.27;1.80;;;16.40;99.90;;;;;;5030936;28;20403;-66
2022/07/08 07:53:50;;;;;;;4.43;1.50;;;16.20;99.90;;;;;;5034486;28;20189;-66
2022/07/08 07:56:15;;;;;;;1.80;1.57;;;16.10;99.90;;;;;;5034258;28;20267;-67
2022/07/08 07:58:41;;;;;;;8.10;3.40;;;16.50;99.90;;;;;;5034120;28;20694;-66
2022/07/08 08:01:06;;;;;;;6.80;2.10;;;16.50;99.90;;;;;;5034595;28;20690;-66
2022/07/08 08:03:32;;;;;;;5.60;3.17;;;16.50;99.90;;;;;;5033832;28;20236;-66
2022/07/08 08:05:59;;;;;;;3.00;1.70;;;16.70;99.90;;;;;;5033537;28;20176;-66
2022/07/08 08:08:25;;;;;;;1.63;1.40;;;16.60;99.90;;;;;;5033639;28;20271;-66
2022/07/08 08:10:52;;;;;;;6.77;1.73;;;16.70;99.90;;;;;;5033692;28;20420;-67
2022/07/08 08:13:18;;;;;;;3.03;2.20;;;16.60;99.90;;;;;;5033747;28;20501;-66
2022/07/08 08:15:43;;;;;;;4.40;1.73;;;17.50;99.90;;;;;;5033403;28;20414;-65
2022/07/08 08:18:09;;;;;;;5.47;2.20;;;18.00;99.90;;;;;;5033350;28;20463;-67
2022/07/08 08:20:35;;;;;;;1.93;1.20;;;17.80;99.90;;;;;;5033402;28;20192;-67
2022/07/08 08:23:01;;;;;;;4.60;1.80;;;16.90;99.90;;;;;;5033365;28;20214;-67
2022/07/08 08:25:27;;;;;;;4.07;1.63;;;17.20;99.90;;;;;;5032876;28;20418;-66
2022/07/08 08:27:52;;;;;;;3.20;1.43;;;17.70;99.90;;;;;;5032984;28;20281;-66
2022/07/08 08:30:18;;;;;;;7.03;1.73;;;17.70;99.90;;;;;;5032982;28;20527;-66
2022/07/08 08:32:44;;;;;;;5.50;1.20;;;17.90;99.90;;;;;;5033085;28;20170;-66
2022/07/08 08:35:10;;;;;;;6.63;1.50;;;16.90;99.90;;;;;;5032784;28;20404;-66
2022/07/08 08:37:35;;;;;;;1.97;1.50;;;16.90;99.90;;;;;;5032827;28;20195;-65
2022/07/08 08:40:06;;;;;;;3.70;1.60;;;17.10;99.90;;;;;;5032914;28;20172;-66
2022/07/08 08:42:32;;;;;;;7.77;2.10;;;17.30;99.90;;;;;;5029750;28;20345;-66
2022/07/08 08:45:02;;;;;;;4.87;1.63;;;17.50;99.90;;;;;;5031962;28;20405;-66
2022/07/08 08:47:32;;;;;;;2.80;1.50;;;17.70;99.90;;;;;;5032389;28;20429;-66
2022/07/08 08:50:53;;;;;;;4.93;2.33;;;17.30;99.90;;;;;;5032717;28;20406;-66
2022/07/08 08:52:49;;;;;;;6.67;1.60;;;17.50;99.90;;;;;;5032281;28;20512;-66
2022/07/08 08:55:26;;;;;;;3.53;1.70;;;16.80;99.90;;;;;;5032231;28;20464;-66
2022/07/08 08:58:00;;;;;;;4.03;1.47;;;17.30;99.90;;;;;;5031076;28;20456;-67
2022/07/08 09:00:26;;;;;;;2.43;1.50;;;16.70;99.90;;;;;;5031971;28;20509;-66
2022/07/08 09:02:53;;;;;;;3.20;1.20;;;17.10;99.90;;;;;;5031739;28;20777;-65
2022/07/08 09:05:20;;;;;;;2.10;1.33;;;17.20;99.90;;;;;;5032083;28;20401;-66
2022/07/08 09:07:46;;;;;;;1.90;1.03;;;17.10;99.90;;;;;;5032324;28;20441;-65
2022/07/08 09:10:13;;;;;;;4.77;1.63;;;17.10;99.90;;;;;;5032202;28;20926;-65
2022/07/08 09:12:39;;;;;;;2.30;1.07;;;17.30;99.90;;;;;;5032720;28;20175;-65
2022/07/08 09:15:05;;;;;;;4.03;1.80;;;17.40;99.90;;;;;;5031488;28;20428;-65
2022/07/08 09:17:31;;;;;;;8.37;4.97;;;17.50;99.90;;;;;;5031690;28;20202;-65
2022/07/08 09:19:56;;;;;;;7.33;1.40;;;17.70;99.90;;;;;;5032112;28;20422;-65
2022/07/08 09:22:23;;;;;;;3.10;2.40;;;17.20;99.90;;;;;;5032005;28;20644;-65
2022/07/08 09:24:49;;;;;;;6.43;2.80;;;17.30;99.90;;;;;;5031875;28;20657;-65
2022/07/08 09:27:15;;;;;;;9.40;6.47;;;17.10;99.90;;;;;;5032028;28;20496;-65
2022/07/08 09:29:58;;;;;;;4.00;2.13;;;17.80;99.90;;;;;;5031568;28;20225;-67
2022/07/08 09:32:24;;;;;;;2.60;1.20;;;17.60;99.90;;;;;;5031855;28;20532;-66
2022/07/08 09:34:50;;;;;;;5.30;1.43;;;17.60;99.90;;;;;;5031748;28;20414;-66
2022/07/08 09:37:18;;;;;;;3.63;1.57;;;17.80;99.90;;;;;;5031768;28;20459;-66
2022/07/08 09:39:44;;;;;;;3.77;1.57;;;17.70;99.90;;;;;;5032056;28;20553;-66
2022/07/08 09:42:13;;;;;;;4.53;1.20;;;17.40;99.90;;;;;;5033907;28;20927;-66
2022/07/08 09:44:39;;;;;;;1.90;1.43;;;17.10;99.90;;;;;;5051257;28;20402;-66
2022/07/08 09:47:11;;;;;;;2.63;1.77;;;17.10;99.90;;;;;;5051664;28;20428;-69
2022/07/08 09:49:40;;;;;;;1.40;1.20;;;17.40;99.90;;;;;;5044621;28;20221;-67
2022/07/08 09:52:06;;;;;;;6.17;1.70;;;17.50;99.90;;;;;;5026487;28;20422;-66
2022/07/08 09:54:32;;;;;;;4.00;1.37;;;17.70;99.90;;;;;;5011870;28;20865;-66
2022/07/08 09:57:08;;;;;;;3.13;1.57;;;17.90;99.90;;;;;;5012145;28;20278;-66
2022/07/08 09:59:35;;;;;;;1.90;1.07;;;17.40;99.90;;;;;;5011867;28;21182;-66
2022/07/08 10:02:02;;;;;;;2.10;1.60;;;17.30;99.90;;;;;;5011988;28;20408;-66
2022/07/08 10:04:28;;;;;;;2.10;1.67;;;17.10;99.90;;;;;;5011978;28;20524;-66
2022/07/08 10:06:55;;;;;;;2.10;1.20;;;17.20;99.90;;;;;;5018332;28;20559;-66
2022/07/08 10:09:23;;;;;;;6.10;1.67;;;17.20;99.90;;;;;;5029217;28;20220;-66
2022/07/08 10:11:49;;;;;;;2.80;1.43;;;17.80;99.90;;;;;;5030602;28;20440;-66
2022/07/08 10:14:16;;;;;;;3.10;2.10;;;17.80;99.90;;;;;;5029663;28;20498;-66
2022/07/08 10:16:45;;;;;;;2.50;1.60;;;17.80;99.90;;;;;;5031619;28;20503;-66
2022/07/08 10:19:14;;;;;;;4.20;1.63;;;18.20;99.90;;;;;;5032076;28;20434;-66
2022/07/08 10:21:43;;;;;;;4.63;1.30;;;18.10;99.90;;;;;;5032941;28;20492;-66
2022/07/08 10:24:14;;;;;;;1.90;1.30;;;18.20;99.90;;;;;;5032551;28;20908;-66
2022/07/08 10:26:40;;;;;;;2.70;1.30;;;18.50;99.90;;;;;;5031289;28;20416;-66
2022/07/08 10:29:08;;;;;;;1.30;1.20;;;18.90;99.90;;;;;;5031157;28;20505;-66
2022/07/08 10:31:41;;;;;;;1.93;1.30;;;19.70;99.90;;;;;;5031280;28;20462;-67
2022/07/08 10:34:07;;;;;;;5.03;1.80;;;19.60;99.90;;;;;;5031496;28;20524;-66
2022/07/08 10:36:50;;;;;;;2.17;0.90;;;20.00;99.90;;;;;;5031139;28;20449;-66
2022/07/08 10:39:39;;;;;;;4.27;1.80;;;19.70;99.90;;;;;;5031144;28;20649;-67
2022/07/08 10:42:06;;;;;;;1.60;1.30;;;19.60;99.90;;;;;;5028716;28;20846;-66
2022/07/08 10:44:43;;;;;;;1.63;1.30;;;19.40;99.90;;;;;;5023846;28;20815;-66
2022/07/08 10:47:09;;;;;;;2.10;1.53;;;19.70;99.90;;;;;;5030877;28;20498;-66
2022/07/08 10:49:48;;;;;;;2.60;1.30;;;19.70;99.90;;;;;;5030711;28;20527;-66
2022/07/08 10:52:16;;;;;;;1.43;1.10;;;19.80;99.90;;;;;;5031044;28;20860;-66
2022/07/08 10:54:42;;;;;;;3.77;2.33;;;19.20;99.90;;;;;;5030773;28;20455;-66
2022/07/08 10:57:13;;;;;;;2.47;1.10;;;20.00;99.90;;;;;;5030935;28;20454;-66
2022/07/08 10:59:39;;;;;;;4.37;1.80;;;20.60;99.90;;;;;;5030424;28;20433;-66
2022/07/08 11:02:13;;;;;;;2.10;1.07;;;20.90;99.90;;;;;;5031163;28;20457;-66
2022/07/08 11:04:40;;;;;;;4.50;1.33;;;21.30;99.90;;;;;;5030744;28;20548;-66
2022/07/08 11:07:15;;;;;;;4.93;1.33;;;21.40;99.90;;;;;;5030854;28;21166;-66
2022/07/08 11:09:41;;;;;;;3.63;1.20;;;20.40;99.90;;;;;;5030579;28;20441;-66
2022/07/08 11:12:14;;;;;;;2.00;1.10;;;20.60;99.90;;;;;;5030579;28;20503;-66
2022/07/08 11:14:43;;;;;;;2.27;1.07;;;20.70;99.90;;;;;;5030785;28;20943;-66
2022/07/08 11:17:19;;;;;;;2.67;1.13;;;21.00;99.90;;;;;;5030395;28;20965;-66
2022/07/08 11:19:45;;;;;;;1.60;1.00;;;21.60;99.90;;;;;;5030272;28;20419;-67
2022/07/08 11:22:12;;;;;;;7.73;1.30;;;21.60;99.90;;;;;;5030688;28;20425;-66
2022/07/08 11:24:39;;;;;;;4.10;1.30;;;21.30;99.90;;;;;;5030086;28;20823;-66
2022/07/08 11:27:05;;;;;;;1.40;1.20;;;20.70;99.90;;;;;;5033331;28;20417;-67
2022/07/08 11:29:32;;;;;;;3.73;1.57;;;20.90;99.90;;;;;;5033954;28;20462;-66
2022/07/08 11:31:58;;;;;;;1.97;1.50;;;20.70;99.90;;;;;;5034289;28;20412;-66
2022/07/08 11:34:27;;;;;;;4.37;2.87;;;21.20;99.90;;;;;;5034090;28;20407;-66
2022/07/08 11:37:02;;;;;;;12.27;5.33;;;21.10;99.90;;;;;;5034029;28;20533;-67
2022/07/08 11:39:28;;;;;;;2.40;1.10;;;21.30;99.90;;;;;;5033914;28;20878;-67
2022/07/08 11:41:54;;;;;;;2.07;1.00;;;21.00;99.90;;;;;;5034182;28;20422;-66
2022/07/08 11:44:21;;;;;;;1.50;1.00;;;20.40;99.90;;;;;;5034381;28;20425;-66
2022/07/08 11:46:47;;;;;;;1.87;1.37;;;20.50;99.90;;;;;;5033985;28;20418;-66
2022/07/08 11:49:14;;;;;;;2.73;2.00;;;20.30;99.90;;;;;;5034166;28;20427;-66
2022/07/08 11:51:44;;;;;;;4.20;1.00;;;20.50;99.90;;;;;;5034286;28;20480;-66
2022/07/08 11:54:10;;;;;;;1.53;1.03;;;20.60;99.90;;;;;;5034005;28;20427;-66
2022/07/08 11:56:36;;;;;;;1.00;0.80;;;21.00;99.90;;;;;;5034018;28;20459;-67
2022/07/08 11:59:01;;;;;;;1.93;0.90;;;20.90;99.90;;;;;;5033904;28;20200;-66
2022/07/08 12:01:27;;;;;;;2.20;1.07;;;20.90;99.90;;;;;;5032426;28;20340;-66
2022/07/08 12:03:53;;;;;;;5.40;1.83;;;20.80;99.90;;;;;;5034361;28;20172;-66
2022/07/08 12:06:25;;;;;;;2.90;1.10;;;20.90;99.90;;;;;;5033606;28;20246;-66
2022/07/08 12:08:51;;;;;;;3.80;1.47;;;20.90;99.90;;;;;;5033734;28;20194;-66
2022/07/08 12:11:20;;;;;;;0.80;0.80;;;20.90;99.90;;;;;;5033815;28;20403;-66
2022/07/08 12:13:49;;;;;;;1.30;1.17;;;20.60;99.90;;;;;;5033496;28;20500;-67
2022/07/08 12:16:28;;;;;;;2.83;1.00;;;20.50;99.90;;;;;;5033042;28;20811;-67
2022/07/08 12:18:54;;;;;;;1.40;0.97;;;20.60;99.90;;;;;;5033147;28;20443;-67
2022/07/08 12:21:20;;;;;;;1.67;1.33;;;20.60;99.90;;;;;;5033619;28;20399;-67
2022/07/08 12:24:01;;;;;;;1.67;1.57;;;21.00;99.90;;;;;;5033202;28;20547;-67
2022/07/08 12:26:27;;;;;;;4.33;2.47;;;21.00;99.90;;;;;;5033032;28;20409;-65
2022/07/08 12:28:52;;;;;;;1.30;0.90;;;21.00;99.90;;;;;;5056144;22;20484;-72
2022/07/08 12:31:39;;;;;;;1.10;1.00;;;20.80;99.90;;;;;;5013904;28;20404;-71
2022/07/08 12:34:06;;;;;;;3.70;1.13;;;20.60;99.90;;;;;;5014402;28;20614;-73
2022/07/08 12:36:33;;;;;;;6.10;1.03;;;20.90;99.90;;;;;;5008839;28;20537;-72
2022/07/08 12:39:19;;;;;;;4.97;1.60;;;20.80;99.90;;;;;;5006406;28;20440;-71
2022/07/08 12:42:05;;;;;;;1.20;1.10;;;20.90;99.90;;;;;;4994323;28;20473;-71
2022/07/08 12:44:40;;;;;;;1.83;0.93;;;20.80;99.90;;;;;;4994307;28;20406;-70
2022/07/08 12:47:07;;;;;;;1.10;0.90;;;21.10;99.90;;;;;;4994639;28;20445;-71
2022/07/08 12:49:35;;;;;;;4.03;1.27;;;21.40;99.90;;;;;;4994322;28;20433;-72